Portada
METAR-TAF:

METAR-TAF

Aeroports :

Hakodate, Japó

latitud: 41-46N, longitud: 140-49E, altitud: 33 m

Observació

L'informe es va fer fa 48 minuts, a les 09:00 UTC
Vent 13 kt del Sud-Est
Temperatura 15°C
Humitat 72%
Pressió 1023 hPa
Visibilitat 10 km o més
Escasses núvols a una alçada de 2500 ft
Cel ennuvolat

METAR: RJCH 210900Z 14013KT 9999 FEW025 BKN/// 15/10 Q1023

Hora: 18:48 (09:48 UTC)

Pronòstic

L'informe es va fer fa 4 hores i 30 minuts, a les 05:18 UTC
Pronòstic vàlid del 21 a les 06 UTC al 22 a les 12 UTC
Vent 13 kt del Sud-Est
Visibilitat 10 km o més
Escasses núvols a una alçada de 3000 ft
Temporalment
l' 22 a les 00 UTC al 22 a les 06 UTC
Escasses núvols a una alçada de 1500 ft
Cel ennuvolat a una alçada de 3000 ft
Escasses núvols a una alçada de 3000 ft, Cumulonimbus.

TAF: RJCH 210518Z 2106/2212 13013KT 9999 FEW030 TEMPO 2200/2206 FEW015 BKN030 FEW030CB

Observacions i pronòstics meteorològics de més de 4000 aeroports (METAR i TAF).

Les estacions disponibles són els punts grocs i vermells al mapa.

Posi el ratolí al punt desitjat per veure el nom de l'estació.

Feu clic per veure les observacions i els pronòstics meteorològics.

Per canviar el mapa: feu clic els botons verds amb una creu de color negre per apropar; al botó verd amb un guió per allunyar la imatge; o en les fletxes verdes per a mapes adjacents.


METAR-TAF: